Airfield :
LOGIN :

Register | Disclaimer

   EN    FR    IT 

 










Legend :    VFR   Marginal VFR   IFR   Intensive IFR   Very Intensive IFR
Visi :
Ceiling :
>= 8 km
>= 3000ft
5 to 8 km
1000 to 3000 ft
1500m to 5 km
500 to 1000 ft
800 to 1500m
200 to 500 ft
< 800m
< 200 ft
Symbols :   Thunderstorms  Fog  Heavy snow  Heavy precipitations  Wind > 20 kt
SIGMETs :     Misc.  Thunderstorms  Icing  Turbulence  Mountain Waves  Volcanic Ashes







- Airport Elevation : 699 ft
- IATA code : PAD


EDLP - Paderborn Lippstadt

CURRENT METAR :
  • 241250Z 07010KT 030V100 CAVOK 27/08 Q1021

EXPIRED METARs :
  • 241220Z 08010KT 040V110 CAVOK 27/09 Q1022
  • 241150Z 05010KT CAVOK 27/08 Q1022
  • 241120Z 11008KT 040V150 CAVOK 27/09 Q1022
  • 241050Z 12009KT 090V150 CAVOK 26/08 Q1022
  • 241020Z 09010KT 060V120 CAVOK 25/09 Q1023

TAF TAF EDLP
Valid from the 24 at 12:00 until the 25 at 12:00 UTC


241100Z 2412/2512 09009KT CAVOK
BECMG 2417/2420 15004KT
No reported NOTAMs for that airfield.



MET'MAP, your aeronautical weather chart ! - Copyright ORBIFLY December 2007 - Disclaimer

ORBIFLY MET'MAP TEAM :

Programming & Development : Alexandra Zaïnal
Concept & Development : Baudouin d'Aumeries
Co-Development & Prog : Marc-Olivier Méhu
Technical & hardware support : Manuel Goepfert

Contact : metmap@orbifly.com




SOURCES & CREDITS :

   NOAA